7°C Temp
7°C Dewpoint
% Humidity
Temperature
11 KM/H
7 MPH
6 KTS
130°
South East

Wind Speed
Foggy
Conditions
Pressure 1030.91 (hPa) - 30.44 (in)
Visibility 0.1 (mi) - 0 (km)

Current Conditions
EHAM
Location 6km (3.2mi)
Metar :EHAM 220725Z 13006KT 0150 R18C/0250N R27/0250N R18R/0250N R06/0250N FG OVC/// 07/07 Q1031 NOSIG
Fri 22nd March 08:25 am

Airport
  Metar Aviation API Data Provided by https://www.checkwx.com/ PHP scripts by weather34.com ©2019